createdAt,value
2023-04-09T00:00:37.725Z,0.00
2023-04-09T00:03:39.912Z,0.00
2023-04-09T00:06:42.198Z,0.00
2023-04-09T00:09:44.322Z,0.00
2023-04-09T00:12:46.526Z,6.32
2023-04-09T00:15:48.662Z,0.00
2023-04-09T00:18:51.017Z,0.00
2023-04-09T00:21:53.396Z,0.00
2023-04-09T00:24:55.710Z,0.00
2023-04-09T00:27:59.192Z,0.00
2023-04-09T00:31:01.771Z,0.00
2023-04-09T00:34:04.161Z,0.00
2023-04-09T00:37:06.786Z,0.00
2023-04-09T00:40:09.606Z,0.00
2023-04-09T00:43:11.696Z,0.00
2023-04-09T00:46:14.605Z,0.00
2023-04-09T00:49:17.751Z,0.00
2023-04-09T00:52:20.429Z,0.00
2023-04-09T00:55:22.996Z,0.00
2023-04-09T00:58:25.215Z,0.00
2023-04-09T01:01:27.398Z,0.00
2023-04-09T01:04:30.071Z,0.00
2023-04-09T01:11:06.492Z,0.00
2023-04-09T01:14:11.998Z,0.00
2023-04-09T01:17:33.778Z,0.00
2023-04-09T01:20:40.577Z,0.00
2023-04-09T01:24:00.738Z,0.00
2023-04-09T01:27:13.243Z,0.00
2023-04-09T01:30:26.575Z,0.10
2023-04-09T01:33:31.720Z,0.00
2023-04-09T01:36:35.956Z,0.00
2023-04-09T01:39:39.121Z,0.00
2023-04-09T01:42:45.249Z,0.00
2023-04-09T01:45:48.765Z,0.00
2023-04-09T01:48:52.534Z,0.00
2023-04-09T01:51:55.091Z,0.00
2023-04-09T01:54:57.337Z,0.00
2023-04-09T01:57:59.405Z,0.00
2023-04-09T02:01:09.528Z,0.00
2023-04-09T02:04:24.890Z,0.00
2023-04-09T02:07:42.870Z,0.00
2023-04-09T02:10:49.776Z,0.00
2023-04-09T02:13:55.148Z,0.00
2023-04-09T02:16:57.497Z,0.00
2023-04-09T02:19:59.738Z,0.00
2023-04-09T02:23:01.826Z,0.00
2023-04-09T02:26:05.262Z,0.00
2023-04-09T02:29:07.403Z,0.00
2023-04-09T02:32:09.923Z,0.00
2023-04-09T02:35:12.336Z,0.98
2023-04-09T02:38:14.848Z,0.00
2023-04-09T02:41:17.783Z,0.00
2023-04-09T02:44:19.922Z,0.00
2023-04-09T02:47:22.056Z,0.00
2023-04-09T02:50:24.267Z,0.17
2023-04-09T02:53:28.176Z,0.00
2023-04-09T02:56:30.289Z,0.00
2023-04-09T02:59:32.379Z,0.00
2023-04-09T03:02:35.157Z,0.00
2023-04-09T03:05:37.355Z,0.00
2023-04-09T03:08:39.954Z,0.00
2023-04-09T03:11:42.110Z,0.00
2023-04-09T03:14:44.200Z,0.00
2023-04-09T03:17:46.924Z,0.00
2023-04-09T03:20:49.397Z,0.00
2023-04-09T03:23:51.749Z,0.00
2023-04-09T03:26:54.901Z,0.00
2023-04-09T03:29:57.488Z,0.00
2023-04-09T03:33:07.464Z,0.00
2023-04-09T03:36:19.113Z,0.00
2023-04-09T03:39:34.740Z,0.00
2023-04-09T03:42:37.826Z,0.00
2023-04-09T03:45:42.381Z,0.00
2023-04-09T03:48:58.130Z,0.10
2023-04-09T03:52:08.933Z,0.00
2023-04-09T03:55:15.506Z,0.00
2023-04-09T03:58:18.315Z,0.00
2023-04-09T04:01:20.506Z,0.00
2023-04-09T04:07:42.715Z,0.00
2023-04-09T04:10:49.029Z,0.00
2023-04-09T04:13:56.486Z,0.00
2023-04-09T04:16:59.597Z,0.00
2023-04-09T04:20:07.740Z,0.00
2023-04-09T04:23:18.706Z,0.10
2023-04-09T04:26:29.838Z,0.00
2023-04-09T04:29:32.451Z,0.00
2023-04-09T04:32:36.700Z,0.00
2023-04-09T04:35:43.648Z,0.00
2023-04-09T04:39:02.108Z,1.52
2023-04-09T04:42:18.360Z,4.55
2023-04-09T04:45:22.098Z,0.00
2023-04-09T04:48:29.525Z,0.00
2023-04-09T04:51:32.789Z,0.00
2023-04-09T04:54:44.186Z,0.00
2023-04-09T04:57:52.106Z,0.00
2023-04-09T05:00:57.209Z,0.00
2023-04-09T05:03:59.856Z,0.00
2023-04-09T05:07:06.548Z,0.00
2023-04-09T05:10:11.043Z,0.00
2023-04-09T05:13:17.431Z,0.10
2023-04-09T05:16:20.903Z,0.00
2023-04-09T05:19:30.032Z,0.00
2023-04-09T05:22:36.465Z,0.00
2023-04-09T05:25:39.739Z,0.00
2023-04-09T05:28:46.779Z,0.00
2023-04-09T05:31:53.291Z,0.00
2023-04-09T05:35:06.903Z,0.00
2023-04-09T05:38:14.442Z,0.00
2023-04-09T05:41:19.120Z,0.00
2023-04-09T05:44:34.479Z,4.68
2023-04-09T05:47:45.470Z,0.00
2023-04-09T05:50:55.526Z,0.00
2023-04-09T05:54:01.631Z,0.00
2023-04-09T05:57:09.382Z,0.00
2023-04-09T06:00:14.527Z,0.00
2023-04-09T06:03:19.846Z,0.20
2023-04-09T06:06:22.342Z,0.00
2023-04-09T06:09:24.423Z,0.10
2023-04-09T06:12:26.604Z,0.00
2023-04-09T06:15:28.745Z,0.00
2023-04-09T06:18:30.674Z,0.00
2023-04-09T06:21:33.140Z,0.00
2023-04-09T06:24:35.086Z,0.00
2023-04-09T06:27:37.169Z,0.00
2023-04-09T06:30:39.132Z,0.00
2023-04-09T06:33:41.114Z,0.00
2023-04-09T06:36:43.086Z,1.17
2023-04-09T06:39:59.907Z,0.00
2023-04-09T06:43:03.154Z,0.22
2023-04-09T06:46:15.848Z,0.00
2023-04-09T06:49:17.910Z,0.00
2023-04-09T06:52:20.246Z,0.00
2023-04-09T06:58:27.012Z,0.00
2023-04-09T07:01:29.036Z,0.70
2023-04-09T07:04:31.495Z,0.20
2023-04-09T07:07:33.600Z,0.75
2023-04-09T07:10:35.763Z,1.75
2023-04-09T07:16:39.858Z,0.00
2023-04-09T07:19:41.913Z,1.23
2023-04-09T07:25:45.998Z,0.00
2023-04-09T07:31:50.315Z,0.00
2023-04-09T07:34:53.613Z,0.98
2023-04-09T07:37:55.774Z,0.00
2023-04-09T07:40:57.860Z,0.00
2023-04-09T07:44:00.079Z,1.00
2023-04-09T07:47:03.051Z,0.30
2023-04-09T07:50:06.087Z,0.30
2023-04-09T07:53:08.245Z,0.25
2023-04-09T07:56:10.761Z,0.00
2023-04-09T07:59:12.958Z,0.30
2023-04-09T08:02:15.505Z,0.60
2023-04-09T08:05:17.888Z,0.00
2023-04-09T08:08:20.065Z,1.45
2023-04-09T08:14:24.034Z,0.20
2023-04-09T08:17:28.626Z,0.13
2023-04-09T08:20:30.679Z,0.50
2023-04-09T08:23:32.894Z,0.00
2023-04-09T08:26:34.982Z,0.20
2023-04-09T08:30:46.851Z,16.13
2023-04-09T08:36:50.864Z,15.82
2023-04-09T08:39:53.215Z,11.90
2023-04-09T08:42:56.382Z,14.23
2023-04-09T08:45:58.573Z,14.05
2023-04-09T08:49:00.544Z,14.00
2023-04-09T08:52:02.785Z,25.02
2023-04-09T08:55:07.506Z,12.68
2023-04-09T08:58:09.644Z,15.43
2023-04-09T09:01:21.875Z,16.40
2023-04-09T09:04:24.109Z,14.18
2023-04-09T09:07:32.726Z,16.00
2023-04-09T09:10:39.246Z,19.48
2023-04-09T09:13:41.216Z,14.90
2023-04-09T09:16:45.268Z,11.90
2023-04-09T09:19:47.358Z,15.35
2023-04-09T09:25:57.448Z,11.43
2023-04-09T09:29:03.563Z,9.27
2023-04-09T09:32:13.736Z,9.35
2023-04-09T09:35:15.861Z,9.85
2023-04-09T09:38:18.471Z,10.68
2023-04-09T09:41:21.272Z,12.30
2023-04-09T09:44:33.618Z,10.48
2023-04-09T09:47:36.729Z,14.35
2023-04-09T09:50:40.203Z,10.55
2023-04-09T09:53:47.121Z,10.85
2023-04-09T10:00:00.795Z,10.60
2023-04-09T10:06:14.604Z,10.35
2023-04-09T10:09:19.778Z,6.78
2023-04-09T10:12:22.984Z,8.60
2023-04-09T10:15:28.717Z,7.32
2023-04-09T10:18:31.572Z,6.90
2023-04-09T10:21:42.844Z,6.38
2023-04-09T10:24:45.999Z,6.07
2023-04-09T10:28:15.692Z,7.93
2023-04-09T10:31:20.776Z,5.55
2023-04-09T10:34:24.385Z,7.53
2023-04-09T10:37:28.000Z,4.70
2023-04-09T10:40:30.083Z,4.90
2023-04-09T10:46:36.547Z,8.43
2023-04-09T10:49:39.422Z,7.10
2023-04-09T11:03:26.210Z,4.55
2023-04-09T11:06:28.892Z,4.18
2023-04-09T11:09:31.062Z,4.63
2023-04-09T11:12:34.089Z,6.57
2023-04-09T11:15:36.513Z,8.52
2023-04-09T11:18:39.741Z,4.88
2023-04-09T11:21:44.716Z,4.68
2023-04-09T11:24:47.122Z,3.80
2023-04-09T11:30:52.209Z,5.68
2023-04-09T11:33:54.413Z,19.35
2023-04-09T11:36:59.074Z,26.20
2023-04-09T11:40:01.104Z,8.45
2023-04-09T11:43:05.140Z,5.55
2023-04-09T11:46:08.083Z,8.18
2023-04-09T11:49:10.409Z,4.20
2023-04-09T11:55:26.971Z,3.67
2023-04-09T11:58:29.071Z,5.05
2023-04-09T12:01:32.634Z,8.02
2023-04-09T12:04:34.888Z,5.63
2023-04-09T12:10:39.574Z,1.77
2023-04-09T12:13:42.114Z,2.83
2023-04-09T12:16:44.798Z,4.05
2023-04-09T12:19:49.223Z,3.55
2023-04-09T12:22:51.231Z,3.17
2023-04-09T12:25:53.344Z,3.08
2023-04-09T12:28:55.402Z,4.10
2023-04-09T12:31:57.547Z,5.30
2023-04-09T12:38:01.803Z,4.38
2023-04-09T12:41:07.841Z,3.58
2023-04-09T12:44:10.078Z,2.88
2023-04-09T12:50:15.228Z,4.57
2023-04-09T12:53:17.303Z,4.50
2023-04-09T12:56:19.285Z,5.40
2023-04-09T12:59:21.830Z,2.33
2023-04-09T13:02:24.410Z,3.17
2023-04-09T13:05:26.695Z,3.38
2023-04-09T13:08:28.785Z,11.32
2023-04-09T13:11:32.623Z,0.13
2023-04-09T13:14:34.795Z,4.75
2023-04-09T13:20:40.419Z,2.10
2023-04-09T13:23:42.461Z,3.95
2023-04-09T13:26:45.027Z,1.42
2023-04-09T13:29:47.060Z,4.32
2023-04-09T13:32:49.300Z,5.13
2023-04-09T13:38:58.984Z,4.43
2023-04-09T13:42:07.287Z,1.15
2023-04-09T13:45:17.437Z,1.67
2023-04-09T13:48:20.062Z,0.00
2023-04-09T13:51:23.080Z,0.00
2023-04-09T13:54:25.068Z,0.80
2023-04-09T13:57:34.289Z,0.00
2023-04-09T14:00:38.269Z,0.38
2023-04-09T14:03:43.775Z,0.00
2023-04-09T14:06:46.528Z,1.55
2023-04-09T14:09:49.994Z,0.22
2023-04-09T14:12:58.896Z,0.00
2023-04-09T14:19:02.893Z,0.00
2023-04-09T14:22:05.170Z,0.00
2023-04-09T14:25:07.638Z,0.00
2023-04-09T14:28:09.638Z,0.00
2023-04-09T14:31:11.828Z,0.00
2023-04-09T14:37:15.918Z,0.00
2023-04-09T14:40:19.277Z,0.00
2023-04-09T14:46:23.929Z,0.00
2023-04-09T14:49:26.134Z,0.00
2023-04-09T14:55:30.549Z,0.00
2023-04-09T14:58:32.757Z,0.00
2023-04-09T15:01:34.949Z,0.00
2023-04-09T15:04:37.127Z,0.00
2023-04-09T15:07:39.518Z,0.00
2023-04-09T15:10:41.524Z,0.52
2023-04-09T15:13:43.796Z,0.85
2023-04-09T15:19:48.949Z,0.00
2023-04-09T15:22:57.818Z,0.63
2023-04-09T15:26:00.938Z,0.00
2023-04-09T15:29:06.211Z,0.00
2023-04-09T15:32:09.363Z,0.05
2023-04-09T15:35:14.958Z,0.00
2023-04-09T15:38:17.051Z,0.00
2023-04-09T15:41:19.097Z,0.00
2023-04-09T15:44:21.414Z,0.00
2023-04-09T15:50:25.696Z,0.00
2023-04-09T15:53:27.754Z,0.00
2023-04-09T15:56:29.841Z,0.00
2023-04-09T15:59:31.884Z,0.43
2023-04-09T16:02:34.047Z,0.00
2023-04-09T16:05:36.124Z,0.10
2023-04-09T16:11:40.206Z,0.00
2023-04-09T16:14:42.421Z,0.00
2023-04-09T16:20:46.564Z,0.00
2023-04-09T16:26:50.499Z,0.00
2023-04-09T16:29:55.573Z,0.32
2023-04-09T16:32:57.706Z,0.05
2023-04-09T16:35:59.875Z,0.00
2023-04-09T16:42:04.016Z,0.00
2023-04-09T16:45:06.790Z,0.00
2023-04-09T16:48:08.817Z,0.17
2023-04-09T16:51:10.829Z,0.00
2023-04-09T16:54:12.990Z,0.00
2023-04-09T17:00:26.476Z,0.00
2023-04-09T17:03:28.532Z,0.00
2023-04-09T17:09:32.684Z,0.00
2023-04-09T17:12:34.740Z,0.00
2023-04-09T17:15:37.019Z,0.00
2023-04-09T17:21:41.088Z,0.00
2023-04-09T17:24:43.147Z,0.00
2023-04-09T17:30:59.827Z,0.00
2023-04-09T17:37:03.924Z,0.13
2023-04-09T17:40:06.668Z,0.00
2023-04-09T17:43:08.724Z,0.10
2023-04-09T17:46:10.844Z,0.10
2023-04-09T17:49:15.140Z,0.00
2023-04-09T17:52:17.531Z,0.00
2023-04-09T17:55:19.860Z,0.00
2023-04-09T17:58:22.257Z,0.00
2023-04-09T18:01:24.365Z,0.00
2023-04-09T18:04:27.352Z,0.00
2023-04-09T18:07:30.712Z,0.22
2023-04-09T18:10:32.787Z,0.00
2023-04-09T18:13:34.941Z,0.10
2023-04-09T18:16:38.477Z,0.00
2023-04-09T18:19:40.522Z,0.00
2023-04-09T18:22:43.402Z,0.03
2023-04-09T18:25:45.415Z,0.10
2023-04-09T18:28:47.466Z,0.00
2023-04-09T18:31:51.977Z,0.10
2023-04-09T18:34:54.483Z,0.00
2023-04-09T18:37:56.444Z,0.00
2023-04-09T18:40:58.578Z,0.00
2023-04-09T18:44:00.684Z,0.00
2023-04-09T18:47:03.827Z,0.00
2023-04-09T18:50:06.518Z,0.00
2023-04-09T18:53:08.616Z,0.15
2023-04-09T18:56:10.605Z,0.00
2023-04-09T18:59:12.660Z,0.00
2023-04-09T19:02:17.047Z,0.00
2023-04-09T19:05:19.281Z,0.00
2023-04-09T19:08:22.169Z,0.00
2023-04-09T19:11:25.129Z,0.00
2023-04-09T19:14:27.477Z,0.10
2023-04-09T19:17:29.552Z,0.90
2023-04-09T19:20:33.833Z,0.00
2023-04-09T19:23:42.031Z,0.00
2023-04-09T19:26:44.191Z,0.00
2023-04-09T19:29:46.697Z,0.00
2023-04-09T19:32:48.838Z,0.00
2023-04-09T19:35:52.046Z,0.00
2023-04-09T19:38:54.394Z,0.00
2023-04-09T19:44:59.215Z,0.00
2023-04-09T19:48:01.709Z,0.00
2023-04-09T19:51:04.208Z,0.00
2023-04-09T19:54:06.433Z,0.00
2023-04-09T19:57:08.603Z,0.00
2023-04-09T20:00:11.469Z,0.00
2023-04-09T20:03:13.700Z,0.08
2023-04-09T20:06:16.092Z,0.15
2023-04-09T20:09:18.741Z,0.00
2023-04-09T20:15:22.925Z,0.00
2023-04-09T20:18:24.946Z,0.00
2023-04-09T20:21:27.487Z,0.00
2023-04-09T20:24:29.635Z,0.05
2023-04-09T20:27:31.751Z,0.00
2023-04-09T20:30:34.039Z,0.00
2023-04-09T20:33:36.401Z,0.00
2023-04-09T20:36:38.583Z,0.00
2023-04-09T20:39:40.860Z,0.05
2023-04-09T20:42:42.970Z,0.00
2023-04-09T20:45:45.561Z,0.00
2023-04-09T20:48:47.731Z,0.70
2023-04-09T20:51:49.778Z,0.00
2023-04-09T20:54:51.880Z,0.00
2023-04-09T20:57:54.776Z,3.50
2023-04-09T21:01:04.497Z,0.00
2023-04-09T21:04:07.033Z,0.00
2023-04-09T21:10:11.702Z,0.00
2023-04-09T21:13:13.788Z,0.00
2023-04-09T21:16:17.441Z,0.10
2023-04-09T21:19:19.471Z,0.00
2023-04-09T21:22:21.986Z,0.00
2023-04-09T21:25:30.067Z,0.05
2023-04-09T21:28:32.107Z,0.00
2023-04-09T21:31:34.151Z,0.00
2023-04-09T21:34:36.251Z,0.00
2023-04-09T21:37:38.480Z,0.00
2023-04-09T21:40:40.563Z,0.00
2023-04-09T21:43:42.628Z,0.00
2023-04-09T21:46:44.937Z,0.00
2023-04-09T21:49:47.138Z,0.00
2023-04-09T21:52:49.168Z,0.00
2023-04-09T21:55:51.430Z,0.00
2023-04-09T21:58:53.620Z,0.00
2023-04-09T22:01:56.044Z,0.00
2023-04-09T22:04:59.835Z,0.00
2023-04-09T22:08:02.134Z,0.00
2023-04-09T22:11:04.383Z,0.00
2023-04-09T22:14:06.485Z,0.00
2023-04-09T22:17:08.560Z,0.00
2023-04-09T22:20:10.962Z,0.47
2023-04-09T22:23:12.982Z,0.00
2023-04-09T22:26:15.268Z,0.00
2023-04-09T22:29:17.550Z,0.80
2023-04-09T22:32:19.622Z,0.00
2023-04-09T22:35:21.748Z,0.00
2023-04-09T22:38:25.954Z,0.00
2023-04-09T22:41:28.222Z,0.00
2023-04-09T22:44:30.268Z,0.00
2023-04-09T22:47:32.422Z,0.25
2023-04-09T22:50:35.062Z,0.00
2023-04-09T22:53:37.241Z,0.05
2023-04-09T22:56:39.566Z,0.00
2023-04-09T22:59:41.663Z,0.00
2023-04-09T23:02:43.896Z,0.00
2023-04-09T23:05:46.294Z,0.00
2023-04-09T23:08:48.310Z,0.00
2023-04-09T23:11:50.416Z,0.00
2023-04-09T23:14:54.034Z,0.00
2023-04-09T23:17:56.234Z,0.00
2023-04-09T23:20:58.391Z,0.00
2023-04-09T23:24:00.441Z,0.00
2023-04-09T23:27:02.933Z,0.00
2023-04-09T23:30:05.933Z,0.00
2023-04-09T23:33:08.120Z,0.00
2023-04-09T23:36:10.452Z,0.03
2023-04-09T23:39:12.642Z,0.00
2023-04-09T23:42:15.043Z,0.00
2023-04-09T23:45:17.331Z,0.00
2023-04-09T23:48:19.702Z,0.00
2023-04-09T23:54:24.765Z,0.10
2023-04-09T23:57:27.401Z,0.00
